Whites City, New Mexico
Current Conditions -  °F | °C
As of 10:53 AM on Friday 31 Oct 2014 (Local Time) from KCNM Reporting Station
Broken Clouds Broken Clouds  
Wind Chill: 60°   Ceiling: 6500
Heat Index: 60°   Visibility: 10mi
Dew Point: 36°   Wind: 5mph
Humidity: 41%   Direction: NA
Pressure: 30.42"   Gusts: NA
Location:  32.18°N, 104.37°W
Report Text: KCNM 311653Z AUTO VRB04KT 10SM BKN065 16/02 A3042 RMK AO2 SLP272 T01560022
Loading
Personal Weather Stations






























Interactive Weather Map
Tropical Storm Tracking
New forecast layout! Learn more

10-Day Weather Forecast

Advertisements
Track Severe Weather on mobile